Alexandria, MO

10:08 AM CST on November 26, 2014 (GMT -0600)
KEOIA | Change Station
CLOSE
Current Station
Personal Weather Station
Location: Keokuk, IA
Elevation: 629 ft
Nearby Weather Stations
Active Advisory: Special Statement Active Notice: Public Information Statement

Elev 629 ft 40.40 °N, 91.38 °W | Updated 4 seconds ago

Snow
Snow
32.2 °F
Feels Like 32 °F
N
0.0
Wind Variable Wind from WNW
Gusts 5.0 mph

Today
High -- | Low -- °F
--% Chance of Precip.
Yesterday
High -- | Low -- °F
Precip. -- in
7:04 AM 4:41 PM
Waxing Crescent, 20% visible
Pressure 29.98 in
Visibility 4.0 miles
Clouds Few 3100 ft
Windchill 32 °F
Dew Point 28 °F
Humidity 86%
Rainfall 0.00 in
Snow Depth Not available.
UV 2 out of 12
Pollen .10 out of 12
Air Quality Not available.
Flu Activity Not available.
METAR KEOK 261555Z AUTO 12009KT 4SM -SN FEW031 00/M02 A2998 RMK AO2

More Conditions Fewer Conditions

Pressure 29.98 in
Visibility 4.0 miles
Clouds Few 3100 ft
Windchill 32 °F
Dew Point 28 °F
Humidity 86%
Rainfall 0.00 in
Snow Depth Not available.
UV 2 out of 12
Pollen .10 out of 12
Air Quality Not available.
Flu Activity Not available.
METAR KEOK 261555Z AUTO 12009KT 4SM -SN FEW031 00/M02 A2998 RMK AO2

More Conditions Fewer Conditions

10-Day Weather Forecast

Almanac

Astronomy

Nov. 26, 2014 Rise Set
Actual Time
Civil Twilight
Nautical Twilight
Astronomical Twilight
Moon
Length of Visible Light
Length of Day
Tomorrow will be .
, % of the Moon is Illuminated

Today's Extremes

State Highs State Lows

Community

WunderPhotos

Upload Photos

1,773,780 photos uploaded!

WunderBlogs® & News

Nearby

Air Quality

  Air Quality AQ Index Pollutant
Not available.

Snow Depth

Station Depth Elevation

Earthquake Activity

City Distance Mag. Time & Date
Minimum magnitude displayed is 2.5.

Coastal Water Temperatures

Place Temperature

Nearby Weather Stations